sensor_id;sensor_type;location;lat;lon;timestamp;pressure;altitude;pressure_sealevel;temperature;humidity
11017;BME280;54687;50.800;6.772;2023-04-08T00:01:37;61080.34;;;-144.06;63.27
11017;BME280;54687;50.800;6.772;2023-04-08T00:04:04;61082.44;;;-144.06;63.07
11017;BME280;54687;50.800;6.772;2023-04-08T00:06:33;61080.34;;;-144.06;63.05
11017;BME280;54687;50.800;6.772;2023-04-08T00:09:00;61092.91;;;-144.06;63.04
11017;BME280;54687;50.800;6.772;2023-04-08T00:11:27;61042.59;;;-144.06;62.81
11017;BME280;54687;50.800;6.772;2023-04-08T00:13:55;61034.22;;;-144.06;62.64
11017;BME280;54687;50.800;6.772;2023-04-08T00:16:22;61053.09;;;-144.06;62.49
11017;BME280;54687;50.800;6.772;2023-04-08T00:18:48;61051.00;;;-144.06;62.56
11017;BME280;54687;50.800;6.772;2023-04-08T00:21:15;61051.00;;;-144.06;62.97
11017;BME280;54687;50.800;6.772;2023-04-08T00:23:44;61105.50;;;-144.06;62.86
11017;BME280;54687;50.800;6.772;2023-04-08T00:26:11;61067.75;;;-144.06;62.72
11017;BME280;54687;50.800;6.772;2023-04-08T00:28:38;61080.34;;;-144.06;62.60
11017;BME280;54687;50.800;6.772;2023-04-08T00:31:06;61051.00;;;-144.06;62.46
11017;BME280;54687;50.800;6.772;2023-04-08T00:33:33;61071.94;;;-144.06;62.70
11017;BME280;54687;50.800;6.772;2023-04-08T00:36:00;61071.94;;;-144.06;62.54
11017;BME280;54687;50.800;6.772;2023-04-08T00:38:27;61069.84;;;-144.06;62.74
11017;BME280;54687;50.800;6.772;2023-04-08T00:40:54;61067.75;;;-144.06;62.44
11017;BME280;54687;50.800;6.772;2023-04-08T00:43:22;61061.47;;;-144.06;62.73
11017;BME280;54687;50.800;6.772;2023-04-08T00:45:48;61059.38;;;-144.06;62.49
11017;BME280;54687;50.800;6.772;2023-04-08T00:48:16;61051.00;;;-144.06;62.59
11017;BME280;54687;50.800;6.772;2023-04-08T00:50:43;61078.25;;;-144.06;62.85
11017;BME280;54687;50.800;6.772;2023-04-08T00:53:11;61004.88;;;-144.06;62.83
11017;BME280;54687;50.800;6.772;2023-04-08T00:55:38;61051.00;;;-144.06;63.05
11017;BME280;54687;50.800;6.772;2023-04-08T00:58:05;61078.25;;;-144.06;62.52
11017;BME280;54687;50.800;6.772;2023-04-08T01:00:32;61046.78;;;-144.06;62.65
11017;BME280;54687;50.800;6.772;2023-04-08T01:03:05;61084.53;;;-144.06;62.86
11017;BME280;54687;50.800;6.772;2023-04-08T01:05:41;61101.28;;;-144.06;62.66
11017;BME280;54687;50.800;6.772;2023-04-08T01:08:12;61042.59;;;-144.06;62.56
11017;BME280;54687;50.800;6.772;2023-04-08T01:10:40;61084.53;;;-144.06;62.72
11017;BME280;54687;50.800;6.772;2023-04-08T01:13:08;61059.38;;;-144.06;62.71
11017;BME280;54687;50.800;6.772;2023-04-08T01:15:37;61063.56;;;-144.06;62.62
11017;BME280;54687;50.800;6.772;2023-04-08T01:18:08;61057.28;;;-144.06;62.56
11017;BME280;54687;50.800;6.772;2023-04-08T01:20:39;61084.53;;;-144.06;62.54
11017;BME280;54687;50.800;6.772;2023-04-08T01:23:13;61105.50;;;-144.06;62.81
11017;BME280;54687;50.800;6.772;2023-04-08T01:25:45;61076.13;;;-144.06;62.86
11017;BME280;54687;50.800;6.772;2023-04-08T01:28:15;61101.28;;;-144.06;62.89
11017;BME280;54687;50.800;6.772;2023-04-08T01:30:43;61059.38;;;-144.06;62.91
11017;BME280;54687;50.800;6.772;2023-04-08T01:33:13;61088.72;;;-144.06;62.81
11017;BME280;54687;50.800;6.772;2023-04-08T01:35:41;61053.09;;;-144.06;62.81
11017;BME280;54687;50.800;6.772;2023-04-08T01:38:10;61069.84;;;-144.06;62.76
11017;BME280;54687;50.800;6.772;2023-04-08T01:40:39;61017.44;;;-144.06;62.84
11017;BME280;54687;50.800;6.772;2023-04-08T01:43:09;61065.66;;;-144.06;63.03
11017;BME280;54687;50.800;6.772;2023-04-08T01:45:38;61080.34;;;-144.06;63.06
11017;BME280;54687;50.800;6.772;2023-04-08T01:48:05;61042.59;;;-144.06;63.00
11017;BME280;54687;50.800;6.772;2023-04-08T01:50:33;61080.34;;;-144.06;62.86
11017;BME280;54687;50.800;6.772;2023-04-08T01:53:01;61063.56;;;-144.06;63.30
11017;BME280;54687;50.800;6.772;2023-04-08T01:55:30;61118.06;;;-144.06;63.19
11017;BME280;54687;50.800;6.772;2023-04-08T01:57:59;61063.56;;;-144.06;63.25
11017;BME280;54687;50.800;6.772;2023-04-08T02:00:29;61059.38;;;-144.06;63.08
11017;BME280;54687;50.800;6.772;2023-04-08T02:02:56;61067.75;;;-144.06;63.06
11017;BME280;54687;50.800;6.772;2023-04-08T02:05:23;61080.34;;;-144.06;63.25
11017;BME280;54687;50.800;6.772;2023-04-08T02:07:50;61063.56;;;-144.06;63.24
11017;BME280;54687;50.800;6.772;2023-04-08T02:10:17;61080.34;;;-144.06;63.03
11017;BME280;54687;50.800;6.772;2023-04-08T02:12:44;61088.72;;;-144.06;62.93
11017;BME280;54687;50.800;6.772;2023-04-08T02:15:12;61055.19;;;-144.06;62.93
11017;BME280;54687;50.800;6.772;2023-04-08T02:17:43;61088.72;;;-144.06;62.86
11017;BME280;54687;50.800;6.772;2023-04-08T02:20:15;61095.00;;;-144.06;62.86
11017;BME280;54687;50.800;6.772;2023-04-08T02:22:47;61113.88;;;-144.06;63.10
11017;BME280;54687;50.800;6.772;2023-04-08T02:25:15;61059.38;;;-144.06;63.20
11017;BME280;54687;50.800;6.772;2023-04-08T02:27:45;61063.56;;;-144.06;62.70
11017;BME280;54687;50.800;6.772;2023-04-08T02:30:14;61113.88;;;-144.06;62.93
11017;BME280;54687;50.800;6.772;2023-04-08T02:32:42;61046.78;;;-144.06;62.56
11017;BME280;54687;50.800;6.772;2023-04-08T02:35:11;61055.19;;;-144.06;62.64
11017;BME280;54687;50.800;6.772;2023-04-08T02:37:38;61063.56;;;-144.06;62.69
11017;BME280;54687;50.800;6.772;2023-04-08T02:40:23;61067.75;;;-144.06;62.91
11017;BME280;54687;50.800;6.772;2023-04-08T02:42:50;61040.50;;;-144.06;62.54
11017;BME280;54687;50.800;6.772;2023-04-08T02:45:17;61080.34;;;-144.06;62.93
11017;BME280;54687;50.800;6.772;2023-04-08T02:47:45;61071.94;;;-144.06;62.98
11017;BME280;54687;50.800;6.772;2023-04-08T02:50:12;61076.13;;;-144.06;62.98
11017;BME280;54687;50.800;6.772;2023-04-08T02:52:39;61046.78;;;-144.06;63.00
11017;BME280;54687;50.800;6.772;2023-04-08T02:55:06;61084.53;;;-144.06;63.21
11017;BME280;54687;50.800;6.772;2023-04-08T02:57:35;61034.22;;;-144.06;63.13
11017;BME280;54687;50.800;6.772;2023-04-08T03:00:03;61040.50;;;-144.06;63.09
11017;BME280;54687;50.800;6.772;2023-04-08T03:02:29;61055.19;;;-144.06;63.05
11017;BME280;54687;50.800;6.772;2023-04-08T03:04:58;61063.56;;;-144.06;63.50
11017;BME280;54687;50.800;6.772;2023-04-08T03:07:24;61065.66;;;-144.06;63.50
11017;BME280;54687;50.800;6.772;2023-04-08T03:09:52;61069.84;;;-144.06;63.59
11017;BME280;54687;50.800;6.772;2023-04-08T03:12:20;61076.13;;;-144.06;63.60
11017;BME280;54687;50.800;6.772;2023-04-08T03:14:47;61130.66;;;-144.06;63.45
11017;BME280;54687;50.800;6.772;2023-04-08T03:17:13;61078.25;;;-144.06;63.54
11017;BME280;54687;50.800;6.772;2023-04-08T03:19:40;61084.53;;;-144.06;63.46
11017;BME280;54687;50.800;6.772;2023-04-08T03:22:08;61115.97;;;-144.06;63.48
11017;BME280;54687;50.800;6.772;2023-04-08T03:24:35;61092.91;;;-144.06;63.52
11017;BME280;54687;50.800;6.772;2023-04-08T03:27:01;61051.00;;;-144.06;63.48
11017;BME280;54687;50.800;6.772;2023-04-08T03:29:28;61063.56;;;-144.06;63.50
11017;BME280;54687;50.800;6.772;2023-04-08T03:31:55;61076.13;;;-144.06;63.54
11017;BME280;54687;50.800;6.772;2023-04-08T03:34:22;61080.34;;;-144.06;63.67
11017;BME280;54687;50.800;6.772;2023-04-08T03:36:48;61080.34;;;-144.06;63.41
11017;BME280;54687;50.800;6.772;2023-04-08T03:39:16;61051.00;;;-144.06;63.43
11017;BME280;54687;50.800;6.772;2023-04-08T03:41:43;61059.38;;;-144.06;63.48
11017;BME280;54687;50.800;6.772;2023-04-08T03:44:09;61048.88;;;-144.06;63.45
11017;BME280;54687;50.800;6.772;2023-04-08T03:46:36;61076.13;;;-144.06;63.25
11017;BME280;54687;50.800;6.772;2023-04-08T03:49:02;61109.69;;;-144.06;63.23
11017;BME280;54687;50.800;6.772;2023-04-08T03:51:29;61101.28;;;-144.06;63.49
11017;BME280;54687;50.800;6.772;2023-04-08T03:53:56;61065.66;;;-144.06;63.71
11017;BME280;54687;50.800;6.772;2023-04-08T03:56:24;61074.03;;;-144.06;63.57
11017;BME280;54687;50.800;6.772;2023-04-08T03:58:50;61063.56;;;-144.06;63.52
11017;BME280;54687;50.800;6.772;2023-04-08T04:01:17;61071.94;;;-144.06;63.35
11017;BME280;54687;50.800;6.772;2023-04-08T04:03:43;61082.44;;;-144.06;63.76
11017;BME280;54687;50.800;6.772;2023-04-08T04:06:10;61113.88;;;-144.06;63.73
11017;BME280;54687;50.800;6.772;2023-04-08T04:08:37;61109.69;;;-144.06;63.79
11017;BME280;54687;50.800;6.772;2023-04-08T04:11:03;61076.13;;;-144.06;63.47
11017;BME280;54687;50.800;6.772;2023-04-08T04:13:31;61080.34;;;-144.06;63.50
11017;BME280;54687;50.800;6.772;2023-04-08T04:15:58;61067.75;;;-144.06;63.82
11017;BME280;54687;50.800;6.772;2023-04-08T04:18:24;61059.38;;;-144.06;63.64
11017;BME280;54687;50.800;6.772;2023-04-08T04:20:51;61048.88;;;-144.06;63.82
11017;BME280;54687;50.800;6.772;2023-04-08T04:23:17;61105.50;;;-144.06;63.76
11017;BME280;54687;50.800;6.772;2023-04-08T04:25:44;61101.28;;;-144.06;63.88
11017;BME280;54687;50.800;6.772;2023-04-08T04:28:11;61057.28;;;-144.06;63.53
11017;BME280;54687;50.800;6.772;2023-04-08T04:30:39;61109.69;;;-144.06;63.59
11017;BME280;54687;50.800;6.772;2023-04-08T04:33:06;61059.38;;;-144.06;63.47
11017;BME280;54687;50.800;6.772;2023-04-08T04:35:33;61168.38;;;-144.06;63.32
11017;BME280;54687;50.800;6.772;2023-04-08T04:37:59;61101.28;;;-144.06;63.45
11017;BME280;54687;50.800;6.772;2023-04-08T04:40:26;61057.28;;;-144.06;63.81
11017;BME280;54687;50.800;6.772;2023-04-08T04:42:52;61084.53;;;-144.06;63.40
11017;BME280;54687;50.800;6.772;2023-04-08T04:45:20;61118.06;;;-144.06;63.58
11017;BME280;54687;50.800;6.772;2023-04-08T04:47:48;61069.84;;;-144.06;63.37
11017;BME280;54687;50.800;6.772;2023-04-08T04:50:14;61086.63;;;-144.06;63.58
11017;BME280;54687;50.800;6.772;2023-04-08T04:52:41;61048.88;;;-144.06;63.67
11017;BME280;54687;50.800;6.772;2023-04-08T04:55:08;61080.34;;;-144.06;63.83
11017;BME280;54687;50.800;6.772;2023-04-08T04:57:35;61097.09;;;-144.06;63.88
11017;BME280;54687;50.800;6.772;2023-04-08T05:00:01;61105.50;;;-144.06;63.75
11017;BME280;54687;50.800;6.772;2023-04-08T05:02:28;61080.34;;;-144.06;63.69
11017;BME280;54687;50.800;6.772;2023-04-08T05:04:56;61095.00;;;-144.06;63.59
11017;BME280;54687;50.800;6.772;2023-04-08T05:07:23;61071.94;;;-144.06;63.76
11017;BME280;54687;50.800;6.772;2023-04-08T05:09:50;61076.13;;;-144.06;63.98
11017;BME280;54687;50.800;6.772;2023-04-08T05:12:16;61090.81;;;-144.06;63.54
11017;BME280;54687;50.800;6.772;2023-04-08T05:14:44;61086.63;;;-144.06;63.69
11017;BME280;54687;50.800;6.772;2023-04-08T05:17:11;61061.47;;;-144.06;63.85
11017;BME280;54687;50.800;6.772;2023-04-08T05:19:38;61095.00;;;-144.06;63.88
11017;BME280;54687;50.800;6.772;2023-04-08T05:22:06;61086.63;;;-144.06;64.02
11017;BME280;54687;50.800;6.772;2023-04-08T05:24:32;61042.59;;;-144.06;64.20
11017;BME280;54687;50.800;6.772;2023-04-08T05:27:00;61044.69;;;-144.06;64.23
11017;BME280;54687;50.800;6.772;2023-04-08T05:29:27;61086.63;;;-144.06;64.03
11017;BME280;54687;50.800;6.772;2023-04-08T05:31:53;61105.50;;;-144.06;64.30
11017;BME280;54687;50.800;6.772;2023-04-08T05:34:20;61088.72;;;-144.06;64.14
11017;BME280;54687;50.800;6.772;2023-04-08T05:36:48;61080.34;;;-144.06;64.21
11017;BME280;54687;50.800;6.772;2023-04-08T05:39:17;61084.53;;;-144.06;64.33
11017;BME280;54687;50.800;6.772;2023-04-08T05:41:44;61080.34;;;-144.06;64.25
11017;BME280;54687;50.800;6.772;2023-04-08T05:44:11;61059.38;;;-144.06;64.28
11017;BME280;54687;50.800;6.772;2023-04-08T05:46:37;61063.56;;;-144.06;64.27
11017;BME280;54687;50.800;6.772;2023-04-08T05:49:04;61082.44;;;-144.06;64.52
11017;BME280;54687;50.800;6.772;2023-04-08T05:51:30;61103.38;;;-144.06;64.69
11017;BME280;54687;50.800;6.772;2023-04-08T05:53:57;61143.22;;;-144.06;64.94
11017;BME280;54687;50.800;6.772;2023-04-08T05:56:25;61105.50;;;-144.06;64.84
11017;BME280;54687;50.800;6.772;2023-04-08T05:58:51;61101.28;;;-144.06;65.05
11017;BME280;54687;50.800;6.772;2023-04-08T06:01:18;61113.88;;;-144.06;64.94
11017;BME280;54687;50.800;6.772;2023-04-08T06:03:44;61101.28;;;-144.06;64.65
11017;BME280;54687;50.800;6.772;2023-04-08T06:06:11;61122.25;;;-144.06;64.79
11017;BME280;54687;50.800;6.772;2023-04-08T06:08:38;61038.41;;;-144.06;64.48
11017;BME280;54687;50.800;6.772;2023-04-08T06:11:04;61080.34;;;-144.06;64.37
11017;BME280;54687;50.800;6.772;2023-04-08T06:13:32;61084.53;;;-144.06;63.92
11017;BME280;54687;50.800;6.772;2023-04-08T06:16:09;61071.94;;;-144.06;63.82
11017;BME280;54687;50.800;6.772;2023-04-08T06:18:36;61095.00;;;-144.06;63.92
11017;BME280;54687;50.800;6.772;2023-04-08T06:21:02;61071.94;;;-144.06;64.01
11017;BME280;54687;50.800;6.772;2023-04-08T06:23:29;61088.72;;;-144.06;64.10
11017;BME280;54687;50.800;6.772;2023-04-08T06:25:56;61101.28;;;-144.06;63.69
11017;BME280;54687;50.800;6.772;2023-04-08T06:28:22;61071.94;;;-144.06;63.79
11017;BME280;54687;50.800;6.772;2023-04-08T06:30:51;61122.25;;;-144.06;63.62
11017;BME280;54687;50.800;6.772;2023-04-08T06:33:17;61122.25;;;-144.06;63.72
11017;BME280;54687;50.800;6.772;2023-04-08T06:35:44;61088.72;;;-144.06;63.76
11017;BME280;54687;50.800;6.772;2023-04-08T06:38:11;61095.00;;;-144.06;63.46
11017;BME280;54687;50.800;6.772;2023-04-08T06:40:38;61084.53;;;-144.06;63.69
11017;BME280;54687;50.800;6.772;2023-04-08T06:43:04;61063.56;;;-144.06;63.73
11017;BME280;54687;50.800;6.772;2023-04-08T06:45:32;61090.81;;;-144.06;63.94
11017;BME280;54687;50.800;6.772;2023-04-08T06:48:00;61126.44;;;-144.06;63.66
11017;BME280;54687;50.800;6.772;2023-04-08T06:50:27;61055.19;;;-144.06;63.80
11017;BME280;54687;50.800;6.772;2023-04-08T06:52:53;61042.59;;;-144.06;63.57
11017;BME280;54687;50.800;6.772;2023-04-08T06:55:20;61113.88;;;-144.06;63.45
11017;BME280;54687;50.800;6.772;2023-04-08T06:57:46;61088.72;;;-144.06;63.35
11017;BME280;54687;50.800;6.772;2023-04-08T07:00:13;61063.56;;;-144.06;63.52
11017;BME280;54687;50.800;6.772;2023-04-08T07:02:40;61080.34;;;-144.06;63.48
11017;BME280;54687;50.800;6.772;2023-04-08T07:05:08;61109.69;;;-144.06;63.49
11017;BME280;54687;50.800;6.772;2023-04-08T07:07:35;61076.13;;;-144.06;63.08
11017;BME280;54687;50.800;6.772;2023-04-08T07:10:01;61038.41;;;-144.06;63.07
11017;BME280;54687;50.800;6.772;2023-04-08T07:12:28;61090.81;;;-144.06;63.13
11017;BME280;54687;50.800;6.772;2023-04-08T07:14:55;61055.19;;;-144.06;63.26
11017;BME280;54687;50.800;6.772;2023-04-08T07:17:22;61067.75;;;-144.06;63.03
11017;BME280;54687;50.800;6.772;2023-04-08T07:19:48;61057.28;;;-144.06;63.05
11017;BME280;54687;50.800;6.772;2023-04-08T07:22:16;61097.09;;;-144.06;62.69
11017;BME280;54687;50.800;6.772;2023-04-08T07:24:43;61080.34;;;-144.06;62.51
11017;BME280;54687;50.800;6.772;2023-04-08T07:27:14;61071.94;;;-144.06;62.34
11017;BME280;54687;50.800;6.772;2023-04-08T07:29:40;61076.13;;;-144.06;61.51
11017;BME280;54687;50.800;6.772;2023-04-08T07:32:07;61055.19;;;-144.06;61.56
11017;BME280;54687;50.800;6.772;2023-04-08T07:34:33;61069.84;;;-144.06;61.33
11017;BME280;54687;50.800;6.772;2023-04-08T07:37:01;61055.19;;;-144.06;61.14
11017;BME280;54687;50.800;6.772;2023-04-08T07:39:29;61036.31;;;-144.06;60.95
11017;BME280;54687;50.800;6.772;2023-04-08T07:41:55;61074.03;;;-144.06;60.52
11017;BME280;54687;50.800;6.772;2023-04-08T07:44:22;61105.50;;;-144.06;60.03
11017;BME280;54687;50.800;6.772;2023-04-08T07:46:48;61097.09;;;-144.06;59.58
11017;BME280;54687;50.800;6.772;2023-04-08T07:49:16;61030.03;;;-144.06;59.65
11017;BME280;54687;50.800;6.772;2023-04-08T07:51:42;61042.59;;;-144.06;59.99
11017;BME280;54687;50.800;6.772;2023-04-08T07:54:09;61042.59;;;-144.06;58.54
11017;BME280;54687;50.800;6.772;2023-04-08T07:56:38;61044.69;;;-144.06;58.51
11017;BME280;54687;50.800;6.772;2023-04-08T07:59:04;61021.63;;;-144.06;57.81
11017;BME280;54687;50.800;6.772;2023-04-08T08:01:33;61004.88;;;-144.06;57.13
11017;BME280;54687;50.800;6.772;2023-04-08T08:04:00;61023.75;;;-144.06;56.41
11017;BME280;54687;50.800;6.772;2023-04-08T08:06:27;61038.41;;;-144.06;56.07
11017;BME280;54687;50.800;6.772;2023-04-08T08:08:54;60988.09;;;-144.06;56.16
11017;BME280;54687;50.800;6.772;2023-04-08T08:11:20;61067.75;;;-144.06;55.91
11017;BME280;54687;50.800;6.772;2023-04-08T08:13:49;61051.00;;;-144.06;55.91
11017;BME280;54687;50.800;6.772;2023-04-08T08:16:15;61015.34;;;-144.06;55.43
11017;BME280;54687;50.800;6.772;2023-04-08T08:18:42;61021.63;;;-144.06;55.18
11017;BME280;54687;50.800;6.772;2023-04-08T08:21:08;61030.03;;;-144.06;55.18
11017;BME280;54687;50.800;6.772;2023-04-08T08:23:35;61076.13;;;-144.06;55.59
11017;BME280;54687;50.800;6.772;2023-04-08T08:26:03;61013.25;;;-144.06;55.47
11017;BME280;54687;50.800;6.772;2023-04-08T08:28:30;61025.84;;;-144.06;54.40
11017;BME280;54687;50.800;6.772;2023-04-08T08:30:58;61025.84;;;-144.06;53.56
11017;BME280;54687;50.800;6.772;2023-04-08T08:33:25;60971.34;;;-144.06;52.09
11017;BME280;54687;50.800;6.772;2023-04-08T08:35:52;60977.63;;;-144.06;51.72
11017;BME280;54687;50.800;6.772;2023-04-08T08:38:19;60986.00;;;-144.06;52.53
11017;BME280;54687;50.800;6.772;2023-04-08T08:40:46;60979.72;;;-144.06;52.88
11017;BME280;54687;50.800;6.772;2023-04-08T08:43:12;61025.84;;;-144.06;53.28
11017;BME280;54687;50.800;6.772;2023-04-08T08:45:40;61013.25;;;-144.06;52.68
11017;BME280;54687;50.800;6.772;2023-04-08T08:48:08;61000.69;;;-144.06;52.09
11017;BME280;54687;50.800;6.772;2023-04-08T08:50:35;61019.53;;;-144.06;49.80
11017;BME280;54687;50.800;6.772;2023-04-08T08:53:02;60992.28;;;-144.06;51.28
11017;BME280;54687;50.800;6.772;2023-04-08T08:55:30;61000.69;;;-144.06;51.29
11017;BME280;54687;50.800;6.772;2023-04-08T08:57:58;60996.50;;;-144.06;51.08
11017;BME280;54687;50.800;6.772;2023-04-08T09:00:31;60971.34;;;-144.06;50.78
11017;BME280;54687;50.800;6.772;2023-04-08T09:03:15;60958.75;;;-144.06;50.18
11017;BME280;54687;50.800;6.772;2023-04-08T09:05:51;61013.25;;;-144.06;49.98
11017;BME280;54687;50.800;6.772;2023-04-08T09:08:28;60998.59;;;-144.06;49.80
11017;BME280;54687;50.800;6.772;2023-04-08T09:11:09;61009.06;;;-144.06;49.93
11017;BME280;54687;50.800;6.772;2023-04-08T09:13:36;61009.06;;;-144.06;50.23
11017;BME280;54687;50.800;6.772;2023-04-08T09:16:04;61017.44;;;-144.06;50.19
11017;BME280;54687;50.800;6.772;2023-04-08T09:18:33;60992.28;;;-144.06;50.45
11017;BME280;54687;50.800;6.772;2023-04-08T09:21:00;60996.50;;;-144.06;50.29
11017;BME280;54687;50.800;6.772;2023-04-08T09:23:37;61017.44;;;-144.06;50.30
11017;BME280;54687;50.800;6.772;2023-04-08T09:26:06;60983.91;;;-144.06;50.22
11017;BME280;54687;50.800;6.772;2023-04-08T09:28:33;61059.38;;;-144.06;50.15
11017;BME280;54687;50.800;6.772;2023-04-08T09:31:00;61030.03;;;-144.06;49.62
11017;BME280;54687;50.800;6.772;2023-04-08T09:33:32;60971.34;;;-144.06;49.25
11017;BME280;54687;50.800;6.772;2023-04-08T09:35:59;60954.56;;;-144.06;49.37
11017;BME280;54687;50.800;6.772;2023-04-08T09:38:25;60967.13;;;-144.06;48.17
11017;BME280;54687;50.800;6.772;2023-04-08T09:40:52;60933.59;;;-144.06;47.36
11017;BME280;54687;50.800;6.772;2023-04-08T09:43:23;60916.84;;;-144.06;47.46
11017;BME280;54687;50.800;6.772;2023-04-08T09:45:51;60904.25;;;-144.06;47.62
11017;BME280;54687;50.800;6.772;2023-04-08T09:48:22;60912.63;;;-144.06;47.36
11017;BME280;54687;50.800;6.772;2023-04-08T09:50:51;60988.09;;;-144.06;47.02
11017;BME280;54687;50.800;6.772;2023-04-08T09:53:33;60983.91;;;-144.06;46.80
11017;BME280;54687;50.800;6.772;2023-04-08T09:56:01;60979.72;;;-144.06;46.90
11017;BME280;54687;50.800;6.772;2023-04-08T09:58:37;60958.75;;;-144.06;46.28
11017;BME280;54687;50.800;6.772;2023-04-08T10:01:06;60921.03;;;-144.06;46.29
11017;BME280;54687;50.800;6.772;2023-04-08T10:03:35;60948.28;;;-144.06;46.21
11017;BME280;54687;50.800;6.772;2023-04-08T10:06:05;60988.09;;;-144.06;46.50
11017;BME280;54687;50.800;6.772;2023-04-08T10:08:32;60956.66;;;-144.06;46.80
11017;BME280;54687;50.800;6.772;2023-04-08T10:11:00;60927.31;;;-144.06;47.14
11017;BME280;54687;50.800;6.772;2023-04-08T10:13:27;60975.53;;;-144.06;47.41
11017;BME280;54687;50.800;6.772;2023-04-08T10:16:19;60948.28;;;-144.06;47.75
11017;BME280;54687;50.800;6.772;2023-04-08T10:18:46;60941.97;;;-144.06;47.39
11017;BME280;54687;50.800;6.772;2023-04-08T10:21:34;60958.75;;;-144.06;46.12
11017;BME280;54687;50.800;6.772;2023-04-08T10:24:01;60950.38;;;-144.06;46.15
11017;BME280;54687;50.800;6.772;2023-04-08T10:26:36;60904.25;;;-144.06;46.56
11017;BME280;54687;50.800;6.772;2023-04-08T10:29:31;60941.97;;;-144.06;46.21
11017;BME280;54687;50.800;6.772;2023-04-08T10:31:58;60950.38;;;-144.06;46.01
11017;BME280;54687;50.800;6.772;2023-04-08T10:34:25;60944.09;;;-144.06;45.60
11017;BME280;54687;50.800;6.772;2023-04-08T10:36:55;60927.31;;;-144.06;45.00
11017;BME280;54687;50.800;6.772;2023-04-08T10:39:24;60937.78;;;-144.06;44.78
11017;BME280;54687;50.800;6.772;2023-04-08T10:41:51;60941.97;;;-144.06;44.21
11017;BME280;54687;50.800;6.772;2023-04-08T10:44:18;60910.53;;;-144.06;43.76
11017;BME280;54687;50.800;6.772;2023-04-08T10:46:46;60918.94;;;-144.06;43.21
11017;BME280;54687;50.800;6.772;2023-04-08T10:49:13;60900.06;;;-144.06;44.13
11017;BME280;54687;50.800;6.772;2023-04-08T10:51:41;60887.47;;;-144.06;43.90
11017;BME280;54687;50.800;6.772;2023-04-08T10:54:11;60904.25;;;-144.06;42.69
11017;BME280;54687;50.800;6.772;2023-04-08T10:56:43;61011.16;;;-144.06;42.43
11017;BME280;54687;50.800;6.772;2023-04-08T10:59:12;60906.34;;;-144.06;42.45
11017;BME280;54687;50.800;6.772;2023-04-08T11:01:42;60893.78;;;-144.06;42.92
11017;BME280;54687;50.800;6.772;2023-04-08T11:04:13;60904.25;;;-144.06;41.92
11017;BME280;54687;50.800;6.772;2023-04-08T11:06:42;60900.06;;;-144.06;41.33
11017;BME280;54687;50.800;6.772;2023-04-08T11:09:11;60912.63;;;-144.06;42.06
11017;BME280;54687;50.800;6.772;2023-04-08T11:11:37;60912.63;;;-144.06;42.21
11017;BME280;54687;50.800;6.772;2023-04-08T11:14:04;60889.59;;;-144.06;41.99
11017;BME280;54687;50.800;6.772;2023-04-08T11:16:32;60870.72;;;-144.06;41.28
11017;BME280;54687;50.800;6.772;2023-04-08T11:19:01;60944.09;;;-144.06;40.93
11017;BME280;54687;50.800;6.772;2023-04-08T11:21:30;60900.06;;;-144.06;41.28
11017;BME280;54687;50.800;6.772;2023-04-08T11:23:57;60891.69;;;-144.06;41.51
11017;BME280;54687;50.800;6.772;2023-04-08T11:26:25;60950.38;;;-144.06;41.67
11017;BME280;54687;50.800;6.772;2023-04-08T11:28:53;60866.53;;;-144.06;41.17
11017;BME280;54687;50.800;6.772;2023-04-08T11:31:20;60895.88;;;-144.06;41.04
11017;BME280;54687;50.800;6.772;2023-04-08T11:33:48;60900.06;;;-144.06;40.80
11017;BME280;54687;50.800;6.772;2023-04-08T11:36:16;60937.78;;;-144.06;40.78
11017;BME280;54687;50.800;6.772;2023-04-08T11:38:44;60937.78;;;-144.06;41.48
11017;BME280;54687;50.800;6.772;2023-04-08T11:41:12;60862.34;;;-144.06;41.86
11017;BME280;54687;50.800;6.772;2023-04-08T11:43:49;60874.91;;;-144.06;40.79
11017;BME280;54687;50.800;6.772;2023-04-08T11:46:16;60918.94;;;-144.06;41.14
11017;BME280;54687;50.800;6.772;2023-04-08T11:49:02;60910.53;;;-144.06;41.87
11017;BME280;54687;50.800;6.772;2023-04-08T11:51:29;60906.34;;;-144.06;42.12
11017;BME280;54687;50.800;6.772;2023-04-08T11:53:56;60897.97;;;-144.06;41.24
11017;BME280;54687;50.800;6.772;2023-04-08T11:56:25;60862.34;;;-144.06;40.76
11017;BME280;54687;50.800;6.772;2023-04-08T11:58:56;60921.03;;;-144.06;40.20
11017;BME280;54687;50.800;6.772;2023-04-08T12:01:22;60902.16;;;-144.06;40.67
11017;BME280;54687;50.800;6.772;2023-04-08T12:03:56;60908.44;;;-144.06;40.52
11017;BME280;54687;50.800;6.772;2023-04-08T12:06:23;60883.28;;;-144.06;41.03
11017;BME280;54687;50.800;6.772;2023-04-08T12:08:51;60893.78;;;-144.06;40.37
11017;BME280;54687;50.800;6.772;2023-04-08T12:11:18;60902.16;;;-144.06;40.18
11017;BME280;54687;50.800;6.772;2023-04-08T12:13:45;60948.28;;;-144.06;39.58
11017;BME280;54687;50.800;6.772;2023-04-08T12:16:15;60921.03;;;-144.06;40.16
11017;BME280;54687;50.800;6.772;2023-04-08T12:18:42;60891.69;;;-144.06;40.05
11017;BME280;54687;50.800;6.772;2023-04-08T12:21:08;60923.13;;;-144.06;40.70
11017;BME280;54687;50.800;6.772;2023-04-08T12:23:35;60900.06;;;-144.06;39.73
11017;BME280;54687;50.800;6.772;2023-04-08T12:26:01;60879.09;;;-144.06;40.08
11017;BME280;54687;50.800;6.772;2023-04-08T12:28:28;60858.13;;;-144.06;40.22
11017;BME280;54687;50.800;6.772;2023-04-08T12:30:55;60879.09;;;-144.06;39.43
11017;BME280;54687;50.800;6.772;2023-04-08T12:33:23;60900.06;;;-144.06;39.15
11017;BME280;54687;50.800;6.772;2023-04-08T12:35:50;60944.09;;;-144.06;39.15
11017;BME280;54687;50.800;6.772;2023-04-08T12:38:17;60916.84;;;-144.06;38.88
11017;BME280;54687;50.800;6.772;2023-04-08T12:40:43;60916.84;;;-144.06;38.89
11017;BME280;54687;50.800;6.772;2023-04-08T12:43:11;60870.72;;;-144.06;39.61
11017;BME280;54687;50.800;6.772;2023-04-08T12:45:46;60900.06;;;-144.06;39.55